createdAt,value
2023-02-03T00:01:38.642Z,80.00
2023-02-03T00:03:50.688Z,79.81
2023-02-03T00:06:03.647Z,80.48
2023-02-03T00:08:16.614Z,80.27
2023-02-03T00:10:28.816Z,80.38
2023-02-03T00:12:40.400Z,80.27
2023-02-03T00:14:52.293Z,80.23
2023-02-03T00:17:04.500Z,80.40
2023-02-03T00:19:17.657Z,80.47
2023-02-03T00:21:29.914Z,80.39
2023-02-03T00:23:42.429Z,80.42
2023-02-03T00:25:54.525Z,80.53
2023-02-03T00:28:06.554Z,80.67
2023-02-03T00:30:18.612Z,80.66
2023-02-03T00:32:30.665Z,80.44
2023-02-03T00:34:43.010Z,80.55
2023-02-03T00:36:54.904Z,80.81
2023-02-03T00:39:06.794Z,80.67
2023-02-03T00:41:18.996Z,80.74
2023-02-03T00:43:30.782Z,80.83
2023-02-03T00:45:42.826Z,80.79
2023-02-03T00:47:54.677Z,81.05
2023-02-03T00:50:07.600Z,80.84
2023-02-03T00:52:20.306Z,80.90
2023-02-03T00:54:33.729Z,80.50
2023-02-03T00:56:46.029Z,80.88
2023-02-03T00:58:57.924Z,81.01
2023-02-03T01:01:10.174Z,80.72
2023-02-03T01:03:22.219Z,81.01
2023-02-03T01:05:34.524Z,81.16
2023-02-03T01:07:46.413Z,81.17
2023-02-03T01:09:58.304Z,81.03
2023-02-03T01:12:10.092Z,81.02
2023-02-03T01:14:21.987Z,80.85
2023-02-03T01:16:36.518Z,80.89
2023-02-03T01:18:48.944Z,81.09
2023-02-03T01:21:05.345Z,81.35
2023-02-03T01:23:17.235Z,81.22
2023-02-03T01:25:29.250Z,81.39
2023-02-03T01:27:41.248Z,81.49
2023-02-03T01:29:53.222Z,81.54
2023-02-03T01:32:04.957Z,81.47
2023-02-03T01:34:18.654Z,81.73
2023-02-03T01:36:31.256Z,81.60
2023-02-03T01:38:42.949Z,81.67
2023-02-03T01:40:54.534Z,81.74
2023-02-03T01:43:09.243Z,81.95
2023-02-03T01:45:21.190Z,81.87
2023-02-03T01:47:41.978Z,81.94
2023-02-03T01:50:20.186Z,81.99
2023-02-03T01:52:32.999Z,81.83
2023-02-03T01:54:46.099Z,82.07
2023-02-03T01:57:03.133Z,82.22
2023-02-03T01:59:16.401Z,82.09
2023-02-03T02:01:30.242Z,82.12
2023-02-03T02:03:42.092Z,82.13
2023-02-03T02:05:56.948Z,82.22
2023-02-03T02:08:09.556Z,82.29
2023-02-03T02:10:21.559Z,81.81
2023-02-03T02:12:33.546Z,82.22
2023-02-03T02:14:47.818Z,81.84
2023-02-03T02:17:26.005Z,81.87
2023-02-03T02:19:49.057Z,82.24
2023-02-03T02:22:09.555Z,82.31
2023-02-03T02:24:27.588Z,82.46
2023-02-03T02:26:58.371Z,82.09
2023-02-03T02:29:33.459Z,82.13
2023-02-03T02:31:54.221Z,82.34
2023-02-03T02:34:05.949Z,82.27
2023-02-03T02:36:37.811Z,82.47
2023-02-03T02:38:55.743Z,82.34
2023-02-03T02:41:28.940Z,82.39
2023-02-03T02:43:42.466Z,82.52
2023-02-03T02:45:56.549Z,82.46
2023-02-03T02:48:13.518Z,82.44
2023-02-03T02:50:27.836Z,82.63
2023-02-03T02:52:41.408Z,82.78
2023-02-03T02:54:56.467Z,82.52
2023-02-03T02:57:12.063Z,82.50
2023-02-03T02:59:24.249Z,82.71
2023-02-03T03:01:36.058Z,82.79
2023-02-03T03:03:48.038Z,82.72
2023-02-03T03:06:02.799Z,82.49
2023-02-03T03:08:20.829Z,82.58
2023-02-03T03:10:33.071Z,82.75
2023-02-03T03:12:52.910Z,82.76
2023-02-03T03:15:11.597Z,82.75
2023-02-03T03:17:28.674Z,82.99
2023-02-03T03:19:44.863Z,82.96
2023-02-03T03:21:59.832Z,82.75
2023-02-03T03:24:15.098Z,82.91
2023-02-03T03:26:40.823Z,82.92
2023-02-03T03:28:54.860Z,83.06
2023-02-03T03:31:06.796Z,83.05
2023-02-03T03:33:18.846Z,83.05
2023-02-03T03:35:33.299Z,83.10
2023-02-03T03:37:55.638Z,83.17
2023-02-03T03:40:20.535Z,83.12
2023-02-03T03:42:46.422Z,83.21
2023-02-03T03:45:02.346Z,83.25
2023-02-03T03:47:22.323Z,83.48
2023-02-03T03:49:34.318Z,83.73
2023-02-03T03:51:52.805Z,83.71
2023-02-03T03:54:07.643Z,83.47
2023-02-03T03:56:26.581Z,83.57
2023-02-03T03:58:40.525Z,83.94
2023-02-03T04:00:54.404Z,83.77
2023-02-03T04:03:13.993Z,83.75
2023-02-03T04:05:27.156Z,83.95
2023-02-03T04:07:41.301Z,83.81
2023-02-03T04:09:53.304Z,84.20
2023-02-03T04:12:06.517Z,83.81
2023-02-03T04:14:18.414Z,83.83
2023-02-03T04:16:30.340Z,84.11
2023-02-03T04:18:42.299Z,83.98
2023-02-03T04:20:54.294Z,84.22
2023-02-03T04:23:06.519Z,84.52
2023-02-03T04:25:18.794Z,84.33
2023-02-03T04:27:30.689Z,84.55
2023-02-03T04:29:42.483Z,84.70
2023-02-03T04:31:54.521Z,84.55
2023-02-03T04:34:06.784Z,84.44
2023-02-03T04:36:18.799Z,84.39
2023-02-03T04:38:30.763Z,84.52
2023-02-03T04:40:42.878Z,84.30
2023-02-03T04:42:54.753Z,84.65
2023-02-03T04:45:07.384Z,84.29
2023-02-03T04:47:19.461Z,84.27
2023-02-03T04:49:31.465Z,84.34
2023-02-03T04:51:44.447Z,84.27
2023-02-03T04:53:55.999Z,84.43
2023-02-03T04:56:08.097Z,84.01
2023-02-03T04:58:20.055Z,84.31
2023-02-03T05:00:31.936Z,84.02
2023-02-03T05:02:43.834Z,84.07
2023-02-03T05:04:57.363Z,84.18
2023-02-03T05:07:09.872Z,83.98
2023-02-03T05:09:21.970Z,84.09
2023-02-03T05:11:36.139Z,83.95
2023-02-03T05:13:49.962Z,83.86
2023-02-03T05:16:01.501Z,83.94
2023-02-03T05:18:13.427Z,84.22
2023-02-03T05:20:25.609Z,83.63
2023-02-03T05:22:37.726Z,84.20
2023-02-03T05:24:49.720Z,83.79
2023-02-03T05:27:01.721Z,83.49
2023-02-03T05:29:13.608Z,84.22
2023-02-03T05:31:25.626Z,83.62
2023-02-03T05:33:37.496Z,83.27
2023-02-03T05:35:49.284Z,83.64
2023-02-03T05:38:01.582Z,83.53
2023-02-03T05:40:32.628Z,83.52
2023-02-03T05:42:50.762Z,83.63
2023-02-03T05:45:02.556Z,83.61
2023-02-03T05:47:14.354Z,84.12
2023-02-03T05:49:26.656Z,84.31
2023-02-03T05:51:39.610Z,84.16
2023-02-03T05:53:51.353Z,84.04
2023-02-03T05:56:03.525Z,84.10
2023-02-03T05:58:15.145Z,84.32
2023-02-03T06:00:27.897Z,85.21
2023-02-03T06:02:39.637Z,84.85
2023-02-03T06:04:51.813Z,85.13
2023-02-03T06:07:03.440Z,84.87
2023-02-03T06:09:15.533Z,85.41
2023-02-03T06:11:28.639Z,85.45
2023-02-03T06:13:40.741Z,85.74
2023-02-03T06:15:52.635Z,85.67
2023-02-03T06:18:04.726Z,86.06
2023-02-03T06:20:17.441Z,85.64
2023-02-03T06:22:29.125Z,85.98
2023-02-03T06:24:41.122Z,86.02
2023-02-03T06:26:53.090Z,86.60
2023-02-03T06:29:05.110Z,86.59
2023-02-03T06:31:17.096Z,86.35
2023-02-03T06:33:29.307Z,86.70
2023-02-03T06:35:41.096Z,87.02
2023-02-03T06:37:52.993Z,86.30
2023-02-03T06:40:05.189Z,86.57
2023-02-03T06:42:17.079Z,87.08
2023-02-03T06:44:28.976Z,86.71
2023-02-03T06:46:40.758Z,87.47
2023-02-03T06:48:52.551Z,87.55
2023-02-03T06:51:05.775Z,87.13
2023-02-03T06:53:17.877Z,87.55
2023-02-03T06:55:29.458Z,87.85
2023-02-03T06:57:45.862Z,87.73
2023-02-03T06:59:57.547Z,87.78
2023-02-03T07:02:10.668Z,87.94
2023-02-03T07:04:22.247Z,89.17
2023-02-03T07:06:34.445Z,88.24
2023-02-03T07:08:46.135Z,88.10
2023-02-03T07:10:57.723Z,88.59
2023-02-03T07:13:09.612Z,88.78
2023-02-03T07:15:21.324Z,88.81
2023-02-03T07:17:33.405Z,89.34
2023-02-03T07:19:46.097Z,88.67
2023-02-03T07:21:58.207Z,88.66
2023-02-03T07:24:10.609Z,89.05
2023-02-03T07:26:23.899Z,88.61
2023-02-03T07:28:36.195Z,88.69
2023-02-03T07:30:48.455Z,88.75
2023-02-03T07:33:00.232Z,89.25
2023-02-03T07:35:12.135Z,89.12
2023-02-03T07:37:23.913Z,88.93
2023-02-03T07:39:35.904Z,89.50
2023-02-03T07:41:47.697Z,89.03
2023-02-03T07:43:59.481Z,89.20
2023-02-03T07:46:11.699Z,89.65
2023-02-03T07:48:24.097Z,89.06
2023-02-03T07:50:35.879Z,89.03
2023-02-03T07:52:50.054Z,89.41
2023-02-03T07:55:02.233Z,89.09
2023-02-03T07:57:14.113Z,88.89
2023-02-03T07:59:26.018Z,89.34
2023-02-03T08:01:37.863Z,89.09
2023-02-03T08:03:49.897Z,89.08
2023-02-03T08:06:01.684Z,89.93
2023-02-03T08:08:13.627Z,89.50
2023-02-03T08:10:26.408Z,89.54
2023-02-03T08:12:38.896Z,89.91
2023-02-03T08:14:50.789Z,89.36
2023-02-03T08:17:02.626Z,89.50
2023-02-03T08:19:14.406Z,89.42
2023-02-03T08:21:26.467Z,89.96
2023-02-03T08:23:38.665Z,89.60
2023-02-03T08:25:50.973Z,88.95
2023-02-03T08:28:02.928Z,89.56
2023-02-03T08:30:15.369Z,89.49
2023-02-03T08:32:27.780Z,89.43
2023-02-03T08:37:10.577Z,89.46
2023-02-03T08:39:23.107Z,89.30
2023-02-03T08:41:35.005Z,89.40
2023-02-03T08:43:46.889Z,89.72
2023-02-03T08:46:02.643Z,89.47
2023-02-03T08:48:14.565Z,89.58
2023-02-03T08:50:26.509Z,89.58
2023-02-03T08:52:38.465Z,89.67
2023-02-03T08:54:50.064Z,89.30
2023-02-03T08:57:01.931Z,89.47
2023-02-03T08:59:13.523Z,89.19
2023-02-03T09:01:25.321Z,89.31
2023-02-03T09:03:37.820Z,89.41
2023-02-03T09:05:49.398Z,89.42
2023-02-03T09:08:00.988Z,89.56
2023-02-03T09:10:13.185Z,89.87
2023-02-03T09:12:25.284Z,89.68
2023-02-03T09:14:37.276Z,89.17
2023-02-03T09:16:49.306Z,89.72
2023-02-03T09:19:01.067Z,89.62
2023-02-03T09:21:27.332Z,89.58
2023-02-03T09:23:43.913Z,90.00
2023-02-03T09:25:56.785Z,89.08
2023-02-03T09:28:08.638Z,89.64
2023-02-03T09:30:20.716Z,89.82
2023-02-03T09:32:34.121Z,89.49
2023-02-03T09:34:46.117Z,89.68
2023-02-03T09:36:57.672Z,89.57
2023-02-03T09:39:09.599Z,89.46
2023-02-03T09:41:45.756Z,89.90
2023-02-03T09:44:03.831Z,89.41
2023-02-03T09:46:24.233Z,89.61
2023-02-03T09:48:43.085Z,89.75
2023-02-03T09:50:55.343Z,89.17
2023-02-03T09:53:13.484Z,88.99
2023-02-03T09:55:25.681Z,89.03
2023-02-03T09:57:43.305Z,89.50
2023-02-03T09:59:57.348Z,89.48
2023-02-03T10:02:23.433Z,89.31
2023-02-03T10:04:42.126Z,89.50
2023-02-03T10:07:02.899Z,89.11
2023-02-03T10:09:19.637Z,89.31
2023-02-03T10:11:47.036Z,89.26
2023-02-03T10:14:08.853Z,89.71
2023-02-03T10:16:27.878Z,89.14
2023-02-03T10:18:43.020Z,89.67
2023-02-03T10:20:59.130Z,90.02
2023-02-03T10:23:13.916Z,89.13
2023-02-03T10:25:25.474Z,89.55
2023-02-03T10:27:39.195Z,89.85
2023-02-03T10:29:58.071Z,89.81
2023-02-03T10:32:11.201Z,89.85
2023-02-03T10:34:24.969Z,89.46
2023-02-03T10:36:45.699Z,89.76
2023-02-03T10:39:20.669Z,89.72
2023-02-03T10:41:32.455Z,89.64
2023-02-03T10:43:53.117Z,89.80
2023-02-03T10:46:05.022Z,90.21
2023-02-03T10:48:18.809Z,89.84
2023-02-03T10:50:33.365Z,90.11
2023-02-03T10:52:47.487Z,90.29
2023-02-03T10:54:59.670Z,90.13
2023-02-03T10:57:14.026Z,90.10
2023-02-03T10:59:30.902Z,90.29
2023-02-03T11:01:44.875Z,90.13
2023-02-03T11:04:01.191Z,90.62
2023-02-03T11:06:14.495Z,90.28
2023-02-03T11:08:29.766Z,90.09
2023-02-03T11:10:43.352Z,90.24
2023-02-03T11:13:13.904Z,90.43
2023-02-03T11:15:25.520Z,90.04
2023-02-03T11:17:43.695Z,90.08
2023-02-03T11:19:57.977Z,90.93
2023-02-03T11:22:09.589Z,91.03
2023-02-03T11:24:30.206Z,91.50
2023-02-03T11:26:57.129Z,91.86
2023-02-03T11:29:16.914Z,91.86
2023-02-03T11:31:30.334Z,91.49
2023-02-03T11:33:42.364Z,91.28
2023-02-03T11:35:55.749Z,91.60
2023-02-03T11:38:27.939Z,91.42
2023-02-03T11:40:41.305Z,92.06
2023-02-03T11:42:53.044Z,91.74
2023-02-03T11:45:23.671Z,91.97
2023-02-03T11:47:35.491Z,91.59
2023-02-03T11:50:10.613Z,91.56
2023-02-03T11:52:22.491Z,91.76
2023-02-03T11:54:54.962Z,91.88
2023-02-03T11:57:10.133Z,91.90
2023-02-03T11:59:25.509Z,91.76
2023-02-03T12:01:40.175Z,91.81
2023-02-03T12:04:07.674Z,91.60
2023-02-03T12:06:38.464Z,91.83
2023-02-03T12:09:10.729Z,92.01
2023-02-03T12:11:31.941Z,92.06
2023-02-03T12:13:49.975Z,92.43
2023-02-03T12:16:20.348Z,92.37
2023-02-03T12:18:38.040Z,92.19
2023-02-03T12:20:56.599Z,92.22
2023-02-03T12:23:27.107Z,92.33
2023-02-03T12:26:02.139Z,92.68
2023-02-03T12:28:33.835Z,93.02
2023-02-03T12:30:49.953Z,93.13
2023-02-03T12:33:12.347Z,93.53
2023-02-03T12:35:27.626Z,93.98
2023-02-03T12:37:41.567Z,94.15
2023-02-03T12:40:20.066Z,94.37
2023-02-03T12:42:37.376Z,94.12
2023-02-03T12:44:52.909Z,94.30
2023-02-03T12:47:07.744Z,93.96
2023-02-03T12:49:40.192Z,94.19
2023-02-03T12:51:54.845Z,94.23
2023-02-03T12:54:25.581Z,94.09
2023-02-03T12:56:41.262Z,94.19
2023-02-03T12:58:57.457Z,94.08
2023-02-03T13:01:21.912Z,94.07
2023-02-03T13:03:37.010Z,93.67
2023-02-03T13:06:09.762Z,93.32
2023-02-03T13:08:40.525Z,93.49
2023-02-03T13:10:59.534Z,93.70
2023-02-03T13:13:14.667Z,93.13
2023-02-03T13:15:29.616Z,93.05
2023-02-03T13:17:46.528Z,92.91
2023-02-03T13:20:07.020Z,92.44
2023-02-03T13:22:19.934Z,92.15
2023-02-03T13:24:31.931Z,92.12
2023-02-03T13:27:00.902Z,92.03
2023-02-03T13:29:19.165Z,91.96
2023-02-03T13:31:34.033Z,91.31
2023-02-03T13:33:55.343Z,90.94
2023-02-03T13:36:20.956Z,91.23
2023-02-03T13:38:38.891Z,91.25
2023-02-03T13:41:06.244Z,91.55
2023-02-03T13:43:37.159Z,91.21
2023-02-03T13:45:52.651Z,91.29
2023-02-03T13:48:26.278Z,90.91
2023-02-03T13:50:39.111Z,90.61
2023-02-03T13:53:09.120Z,89.92
2023-02-03T13:55:36.245Z,89.94
2023-02-03T13:57:51.779Z,89.26
2023-02-03T14:00:06.072Z,89.10
2023-02-03T14:02:22.774Z,88.98
2023-02-03T14:04:36.481Z,88.79
2023-02-03T14:06:48.927Z,88.70
2023-02-03T14:09:00.603Z,88.07
2023-02-03T14:11:31.502Z,88.30
2023-02-03T14:13:43.432Z,88.04
2023-02-03T14:16:14.302Z,88.11
2023-02-03T14:18:44.455Z,88.19
2023-02-03T14:20:58.551Z,88.33
2023-02-03T14:23:16.733Z,86.79
2023-02-03T14:25:29.004Z,86.59
2023-02-03T14:27:41.705Z,86.31
2023-02-03T14:30:05.146Z,86.42
2023-02-03T14:32:17.039Z,86.60
2023-02-03T14:34:35.243Z,86.30
2023-02-03T14:36:49.013Z,85.98
2023-02-03T14:39:02.958Z,86.19
2023-02-03T14:41:18.945Z,86.15
2023-02-03T14:44:09.237Z,86.30
2023-02-03T14:46:21.277Z,86.08
2023-02-03T14:48:52.423Z,86.12
2023-02-03T14:51:22.602Z,86.17
2023-02-03T14:53:52.925Z,86.35
2023-02-03T14:56:14.467Z,86.23
2023-02-03T14:58:34.933Z,86.29
2023-02-03T15:00:48.838Z,86.34
2023-02-03T15:03:06.814Z,86.63
2023-02-03T15:05:19.005Z,86.72
2023-02-03T15:07:38.902Z,86.83
2023-02-03T15:09:51.812Z,86.83
2023-02-03T15:12:15.987Z,86.91
2023-02-03T15:14:31.366Z,87.02
2023-02-03T15:16:44.413Z,86.75
2023-02-03T15:18:58.142Z,86.78
2023-02-03T15:21:16.659Z,86.70
2023-02-03T15:23:38.797Z,86.87
2023-02-03T15:26:04.405Z,86.87
2023-02-03T15:28:20.702Z,86.63
2023-02-03T15:30:32.407Z,86.95
2023-02-03T15:32:50.275Z,86.63
2023-02-03T15:35:04.116Z,86.84
2023-02-03T15:37:30.912Z,86.94
2023-02-03T15:39:43.083Z,86.70
2023-02-03T15:41:56.119Z,86.88
2023-02-03T15:44:12.578Z,86.53
2023-02-03T15:46:28.165Z,86.74
2023-02-03T15:48:55.448Z,86.37
2023-02-03T15:51:19.373Z,86.71
2023-02-03T15:53:46.921Z,86.96
2023-02-03T15:56:01.441Z,86.54
2023-02-03T15:58:18.254Z,86.88
2023-02-03T16:00:33.210Z,86.40
2023-02-03T16:02:46.156Z,86.61
2023-02-03T16:04:58.838Z,86.64
2023-02-03T16:07:19.539Z,86.82
2023-02-03T16:09:39.319Z,86.69
2023-02-03T16:11:51.002Z,86.46
2023-02-03T16:14:06.850Z,86.41
2023-02-03T16:16:22.597Z,86.33
2023-02-03T16:18:36.788Z,86.47
2023-02-03T16:20:50.039Z,86.65
2023-02-03T16:23:16.783Z,87.00
2023-02-03T16:25:30.248Z,87.15
2023-02-03T16:27:44.914Z,87.23
2023-02-03T16:30:36.126Z,87.42
2023-02-03T16:33:21.573Z,87.64
2023-02-03T16:35:54.571Z,87.73
2023-02-03T16:38:26.921Z,87.55
2023-02-03T16:40:57.856Z,87.62
2023-02-03T16:43:30.748Z,87.66
2023-02-03T16:46:01.981Z,87.92
2023-02-03T16:48:32.516Z,88.03
2023-02-03T16:51:10.842Z,88.30
2023-02-03T16:53:30.443Z,88.03
2023-02-03T16:55:42.805Z,88.28
2023-02-03T16:57:54.800Z,88.49
2023-02-03T17:00:08.799Z,88.26
2023-02-03T17:02:21.185Z,88.34
2023-02-03T17:04:34.983Z,88.40
2023-02-03T17:06:51.271Z,88.47
2023-02-03T17:09:03.696Z,88.22
2023-02-03T17:11:20.081Z,88.38
2023-02-03T17:13:32.703Z,88.41
2023-02-03T17:15:45.813Z,88.70
2023-02-03T17:18:01.286Z,88.50
2023-02-03T17:20:16.430Z,88.57
2023-02-03T17:22:33.392Z,88.74
2023-02-03T17:24:47.457Z,88.54
2023-02-03T17:27:00.328Z,88.61
2023-02-03T17:29:12.015Z,88.90
2023-02-03T17:31:23.873Z,88.82
2023-02-03T17:33:36.037Z,88.72
2023-02-03T17:35:59.262Z,89.31
2023-02-03T17:38:12.283Z,89.29
2023-02-03T17:55:16.997Z,89.10
2023-02-03T17:57:29.094Z,89.62
2023-02-03T17:59:42.312Z,89.03
2023-02-03T18:01:56.863Z,89.25
2023-02-03T18:04:09.573Z,89.46
2023-02-03T18:06:21.973Z,89.69
2023-02-03T18:08:35.707Z,89.73
2023-02-03T18:10:48.220Z,89.36
2023-02-03T18:13:00.620Z,89.39
2023-02-03T18:15:12.717Z,89.17
2023-02-03T18:17:32.902Z,89.18
2023-02-03T18:19:49.222Z,89.37
2023-02-03T18:22:06.615Z,89.62
2023-02-03T18:24:20.477Z,89.44
2023-02-03T18:26:34.871Z,88.92
2023-02-03T18:28:47.116Z,89.27
2023-02-03T18:31:01.491Z,89.12
2023-02-03T18:33:13.371Z,89.22
2023-02-03T18:35:25.531Z,89.16
2023-02-03T18:37:37.938Z,89.28
2023-02-03T18:39:50.399Z,89.22
2023-02-03T18:42:02.969Z,89.43
2023-02-03T18:44:15.068Z,89.35
2023-02-03T18:46:29.053Z,89.25
2023-02-03T18:48:40.607Z,89.31
2023-02-03T18:50:52.492Z,89.15
2023-02-03T18:53:04.483Z,89.06
2023-02-03T18:55:16.580Z,89.35
2023-02-03T18:57:28.787Z,89.38
2023-02-03T18:59:40.881Z,89.21
2023-02-03T19:01:52.878Z,89.29
2023-02-03T19:04:04.884Z,89.38
2023-02-03T19:06:17.370Z,89.29
2023-02-03T19:08:28.952Z,89.34
2023-02-03T19:10:40.844Z,89.53
2023-02-03T19:12:52.847Z,89.22
2023-02-03T19:15:05.022Z,89.35
2023-02-03T19:17:16.893Z,89.55
2023-02-03T19:19:28.555Z,89.33
2023-02-03T19:21:40.732Z,89.46
2023-02-03T19:23:53.144Z,89.38
2023-02-03T19:26:04.939Z,89.07
2023-02-03T19:28:20.295Z,89.23
2023-02-03T19:30:41.119Z,89.29
2023-02-03T19:32:53.856Z,89.15
2023-02-03T19:35:06.045Z,89.04
2023-02-03T19:37:17.801Z,88.82
2023-02-03T19:39:32.162Z,89.02
2023-02-03T19:41:44.144Z,88.63
2023-02-03T19:43:55.831Z,89.07
2023-02-03T19:46:10.879Z,88.50
2023-02-03T19:48:24.849Z,88.25
2023-02-03T19:50:37.759Z,88.21
2023-02-03T19:52:49.689Z,87.92
2023-02-03T19:55:01.443Z,87.72
2023-02-03T19:57:13.437Z,87.37
2023-02-03T19:59:25.426Z,87.07
2023-02-03T20:01:38.101Z,87.24
2023-02-03T20:03:51.265Z,87.02
2023-02-03T20:06:04.124Z,86.46
2023-02-03T20:08:16.896Z,86.66
2023-02-03T20:10:29.160Z,86.86
2023-02-03T20:12:41.292Z,86.58
2023-02-03T20:14:53.082Z,86.56
2023-02-03T20:17:06.323Z,86.56
2023-02-03T20:19:18.857Z,86.44
2023-02-03T20:21:30.804Z,86.32
2023-02-03T20:23:42.803Z,86.58
2023-02-03T20:25:56.010Z,85.99
2023-02-03T20:28:07.858Z,86.08
2023-02-03T20:30:20.421Z,85.47
2023-02-03T20:32:32.138Z,85.46
2023-02-03T20:34:46.561Z,85.75
2023-02-03T20:37:01.234Z,84.84
2023-02-03T20:39:17.722Z,85.00
2023-02-03T20:41:29.814Z,84.89
2023-02-03T20:43:41.714Z,85.05
2023-02-03T20:45:53.907Z,84.39
2023-02-03T20:48:06.214Z,84.77
2023-02-03T20:50:31.475Z,83.86
2023-02-03T20:52:47.309Z,83.81
2023-02-03T20:55:00.367Z,83.96
2023-02-03T20:57:17.029Z,83.06
2023-02-03T20:59:29.124Z,83.30
2023-02-03T21:01:41.039Z,82.82
2023-02-03T21:04:12.104Z,82.50
2023-02-03T21:06:24.438Z,82.39
2023-02-03T21:08:36.562Z,82.15
2023-02-03T21:10:48.642Z,81.98
2023-02-03T21:13:00.293Z,81.27
2023-02-03T21:15:32.130Z,81.43
2023-02-03T21:17:44.717Z,81.23
2023-02-03T21:19:58.044Z,81.38
2023-02-03T21:22:23.982Z,81.13
2023-02-03T21:24:38.009Z,81.41
2023-02-03T21:26:49.904Z,81.11
2023-02-03T21:29:03.429Z,81.38
2023-02-03T21:31:23.228Z,81.49
2023-02-03T21:33:42.934Z,81.48
2023-02-03T21:35:55.092Z,81.59
2023-02-03T21:38:22.102Z,81.76
2023-02-03T21:40:36.787Z,81.96
2023-02-03T21:42:49.704Z,82.07
2023-02-03T21:45:02.015Z,81.95
2023-02-03T21:47:17.582Z,82.33
2023-02-03T21:49:29.679Z,82.28
2023-02-03T21:51:42.104Z,82.58
2023-02-03T21:53:56.231Z,82.61
2023-02-03T21:56:15.542Z,82.63
2023-02-03T21:58:31.788Z,83.19
2023-02-03T22:00:48.262Z,83.09
2023-02-03T22:03:02.219Z,82.93
2023-02-03T22:05:17.506Z,82.94
2023-02-03T22:07:29.289Z,82.73
2023-02-03T22:09:42.515Z,83.04
2023-02-03T22:11:55.330Z,83.02
2023-02-03T22:14:07.322Z,83.13
2023-02-03T22:16:19.868Z,83.23
2023-02-03T22:18:32.245Z,83.25
2023-02-03T22:20:44.637Z,83.28
2023-02-03T22:22:57.245Z,83.48
2023-02-03T22:25:09.345Z,83.79
2023-02-03T22:27:21.852Z,83.61
2023-02-03T22:29:33.946Z,83.70
2023-02-03T22:31:46.448Z,84.03
2023-02-03T22:33:58.064Z,84.31
2023-02-03T22:36:11.481Z,84.09
2023-02-03T22:38:23.678Z,84.72
2023-02-03T22:40:35.421Z,84.64
2023-02-03T22:42:47.141Z,84.87
2023-02-03T22:44:59.134Z,84.85
2023-02-03T22:47:10.592Z,85.29
2023-02-03T22:49:22.511Z,85.12
2023-02-03T22:51:34.812Z,85.37
2023-02-03T22:53:47.227Z,85.54
2023-02-03T22:55:59.138Z,85.46
2023-02-03T22:58:11.941Z,85.58
2023-02-03T23:00:25.468Z,85.78
2023-02-03T23:02:40.812Z,85.79
2023-02-03T23:04:53.066Z,86.27
2023-02-03T23:07:04.451Z,85.94
2023-02-03T23:11:09.040Z,86.00
2023-02-03T23:13:20.832Z,85.71
2023-02-03T23:15:32.557Z,85.95
2023-02-03T23:17:44.636Z,86.04
2023-02-03T23:19:56.407Z,86.49
2023-02-03T23:23:36.943Z,86.40
2023-02-03T23:25:48.980Z,86.32
2023-02-03T23:28:01.154Z,85.57
2023-02-03T23:30:15.420Z,83.50
2023-02-03T23:32:54.573Z,83.39
2023-02-03T23:35:27.706Z,83.99
2023-02-03T23:37:40.462Z,83.80
2023-02-03T23:39:52.663Z,84.07
2023-02-03T23:42:05.068Z,84.72
2023-02-03T23:44:16.851Z,84.95
2023-02-03T23:46:28.686Z,84.75
2023-02-03T23:48:40.840Z,85.26
2023-02-03T23:50:52.526Z,85.79
2023-02-03T23:53:05.142Z,86.03
2023-02-03T23:55:21.027Z,86.66
2023-02-03T23:57:33.126Z,86.32
2023-02-03T23:59:44.905Z,87.17
